ADDS METAR Data INFO
IDs: Format: Raw Decoded Include TAF

Data at: 2001 UTC 19 Oct 2017

KVKY 191915Z AUTO 10022KT 10SM SCT026 SCT032 SCT042 26/20 A3014 RMK A01
KVKY 191855Z AUTO 09021KT 10SM SCT026 SCT033 BKN042 26/20 A3015 RMK A01
KVKY 191835Z AUTO 09022KT 9SM SCT024 SCT029 BKN037 26/21 A3015 RMK A01
KVKY 191815Z AUTO 10021KT 9SM SCT026 BKN032 BKN037 26/21 A3016 RMK A01
KVKY 191755Z AUTO 11022KT 9SM FEW025 SCT032 SCT039 26/20 A3016 RMK A01
KVKY 191735Z AUTO 10022KT 9SM SCT024 SCT032 BKN041 26/21 A3017 RMK A01
KVKY 191715Z AUTO 10020KT 9SM BKN025 BKN033 OVC042 26/21 A3017 RMK A01
KVKY 191655Z AUTO 10020KT 9SM BKN027 BKN033 BKN044 27/20 A3018 RMK A01
KVKY 191635Z AUTO 12018KT 10SM SCT029 BKN036 BKN044 27/20 A3018 RMK A01
KVKY 191615Z AUTO 11017KT 10SM SCT027 BKN032 BKN038 27/20 A3018 RMK A01
KVKY 191555Z AUTO 11019KT 9SM SCT027 SCT032 26/20 A3018 RMK A01
KVKY 191535Z AUTO 11020KT 9SM SCT026 SCT033 BKN040 26/20 A3018 RMK A01
KVKY 191515Z AUTO 11021KT 9SM FEW027 SCT033 SCT040 26/20 A3018 RMK A01
KVKY 191455Z AUTO 11019KT 9SM FEW026 FEW034 SCT070 26/20 A3018 RMK A01
KVKY 191435Z AUTO 11018KT 9SM SCT025 BKN034 OVC070 26/21 A3017 RMK A01
KVKY 191415Z AUTO 12014G23KT 1 1/4SM HZ BKN025 BKN033 OVC075 25/21 A3017 RMK A01
KVKY 191355Z AUTO 09020KT 9SM SCT024 SCT033 BKN041 26/21 A3016 RMK A01
KVKY 191335Z AUTO 09017KT 9SM FEW025 FEW032 SCT055 26/21 A3016 RMK A01
KVKY 191315Z AUTO 10016KT 9SM FEW027 SCT033 BKN055 26/21 A3015 RMK A01
KVKY 191255Z AUTO 10013KT 9SM SCT026 BKN033 BKN050 26/21 A3015 RMK A01
KVKY 191235Z AUTO 10015KT 9SM BKN025 BKN031 BKN036 26/20 A3014 RMK A01
KVKY 191215Z AUTO 10014KT 9SM FEW023 FEW029 SCT036 25/20 A3014 RMK A01
KVKY 191155Z AUTO 10015KT 9SM FEW027 FEW039 25/20 A3013 RMK A01
KVKY 191135Z AUTO 10014KT 10SM FEW038 25/19 A3013 RMK A01
KVKY 191115Z AUTO 11017KT 10SM FEW028 SCT033 BKN040 25/19 A3013 RMK A01
KVKY 191055Z AUTO 10017KT 10SM SCT028 BKN033 BKN040 25/20 A3012 RMK A01
KVKY 191035Z AUTO 11017KT 10SM FEW027 SCT033 SCT042 25/20 A3012 RMK A01
KVKY 191015Z AUTO 11018KT 10SM FEW028 SCT034 SCT043 25/20 A3012 RMK A01
KVKY 190955Z AUTO 11019KT 10SM SCT028 BKN034 BKN045 25/20 A3011 RMK A01
KVKY 190935Z AUTO 11018KT 10SM FEW028 FEW033 SCT038 25/20 A3011 RMK A01
KVKY 190915Z AUTO 11018KT 10SM SCT029 SCT036 BKN044 25/20 A3011 RMK A01
KVKY 190855Z AUTO 10015KT 10SM FEW030 FEW035 SCT044 25/20 A3011 RMK A01
KVKY 190835Z AUTO 10017KT 10SM CLR 25/19 A3011 RMK A01
KVKY 190815Z AUTO 10016KT 10SM FEW032 SCT044 25/19 A3012 RMK A01
KVKY 190755Z AUTO 09016KT 10SM FEW033 SCT044 25/19 A3013 RMK A01
KVKY 190735Z AUTO 09016KT 10SM FEW032 SCT037 SCT045 25/18 A3013 RMK A01
KVKY 190715Z AUTO 08015KT 10SM FEW032 FEW038 SCT046 25/18 A3013 RMK A01
KVKY 190655Z AUTO 09016KT 10SM FEW039 SCT049 25/19 A3014 RMK A01
KVKY 190635Z AUTO 10017KT 10SM FEW030 BKN037 OVC050 25/19 A3014 RMK A01
KVKY 190615Z AUTO 10015KT 10SM SCT028 BKN036 BKN046 25/19 A3015 RMK A01
KVKY 190555Z AUTO 10015KT 10SM BKN029 OVC035 25/19 A3016 RMK A01
KVKY 190535Z AUTO 09014KT 10SM BKN031 OVC050 24/19 A3016 RMK A01
KVKY 190515Z AUTO 09017KT 10SM SCT028 SCT044 BKN050 24/18 A3017 RMK A01
KVKY 190455Z AUTO 08017KT 10SM SCT027 SCT032 SCT050 24/18 A3017 RMK A01
KVKY 190435Z AUTO 09016KT 10SM SCT028 SCT040 BKN047 24/18 A3017 RMK A01
KVKY 190415Z AUTO 09017KT 10SM SCT028 BKN041 OVC048 24/18 A3018 RMK A01
KVKY 190355Z AUTO 10017KT 10SM SCT028 SCT033 BKN039 24/19 A3018 RMK A01
KVKY 190335Z AUTO 10018KT 10SM FEW027 SCT032 BKN042 24/19 A3018 RMK A01
KVKY 190315Z AUTO 09016KT 10SM SCT028 BKN039 BKN044 24/19 A3019 RMK A01
KVKY 190255Z AUTO 09015KT 10SM FEW027 SCT031 SCT040 24/18 A3019 RMK A01
KVKY 190235Z AUTO 08015KT 10SM SCT026 BKN032 BKN040 24/18 A3019 RMK A01
KVKY 190215Z AUTO 08014KT 10SM FEW028 BKN039 23/18 A3018 RMK A01
KVKY 190155Z AUTO 07014KT 10SM SCT029 BKN036 23/18 A3018 RMK A01
KVKY 190135Z AUTO 07015KT 10SM FEW033 FEW039 23/18 A3018 RMK A01
KVKY 190115Z AUTO 08016KT 10SM FEW028 SCT034 BKN039 23/18 A3017 RMK A01
KVKY 190055Z AUTO 07014KT 10SM BKN028 BKN034 OVC040 23/18 A3018 RMK A01
KVKY 190035Z AUTO 08017KT 10SM SCT030 BKN039 23/18 A3017 RMK A01
KVKY 190015Z AUTO 08016KT 10SM FEW031 BKN038 23/18 A3016 RMK A01
KVKY 182355Z AUTO 07018KT 10SM BKN039 23/17 A3015 RMK A01
KVKY 182335Z AUTO 07017KT 10SM FEW026 FEW030 BKN040 23/17 A3015 RMK A01
KVKY 181815Z AUTO 08016G21KT 10SM SCT028 BKN033 24/18 A3016 RMK A01
KVKY 181755Z AUTO 07018KT 10SM FEW030 SCT035 24/18 A3017 RMK A01
KVKY 181735Z AUTO 08019KT 10SM FEW029 SCT036 SCT042 24/17 A3017 RMK A01
KVKY 181715Z AUTO 08018KT 10SM SCT030 SCT035 BKN041 24/17 A3018 RMK A01
KVKY 181655Z AUTO 09018KT 10SM FEW032 SCT040 24/17 A3018 RMK A01
KVKY 181635Z AUTO 08017KT 10SM SCT034 BKN040 24/17 A3018 RMK A01
KVKY 181615Z AUTO 09018G23KT 10SM BKN036 24/17 A3019 RMK A01
KVKY 181555Z AUTO 08015G22KT 10SM BKN032 BKN038 BKN043 24/17 A3019 RMK A01
KVKY 181535Z AUTO 08016G22KT 10SM SCT035 24/17 A3020 RMK A01
KVKY 181515Z AUTO 09018KT 10SM CLR 24/17 A3019 RMK A01
KVKY 181455Z AUTO 09019KT 10SM CLR 24/17 A3019 RMK A01
KVKY 181435Z AUTO 09017KT 10SM CLR 24/16 A3019 RMK A01
KVKY 181415Z AUTO 09014KT 10SM FEW038 24/15 A3018 RMK A01
KVKY 181355Z AUTO 07015KT 10SM FEW038 24/16 A3018 RMK A01
KVKY 181335Z AUTO 07014KT 10SM FEW040 24/16 A3018 RMK A01
KVKY 181315Z AUTO 08014G19KT 10SM SCT040 24/16 A3017 RMK A01
KVKY 181255Z AUTO 07015KT 10SM FEW040 24/16 A3017 RMK A01
KVKY 181235Z AUTO 10017KT 10SM SCT037 SCT043 24/16 A3016 RMK A01
KVKY 181215Z AUTO 09015KT 10SM SCT039 SCT045 24/16 A3016 RMK A01
KVKY 181155Z AUTO 10017G23KT 10SM FEW038 24/16 A3015 RMK A01
KVKY 181135Z AUTO 10014KT 10SM SCT040 SCT045 24/16 A3015 RMK A01
KVKY 181115Z AUTO 10015KT 10SM OVC040 24/16 A3014 RMK A01
KVKY 181055Z AUTO 10017G23KT 10SM OVC038 24/16 A3014 RMK A01
KVKY 181035Z AUTO 10017KT 10SM BKN039 OVC046 24/16 A3013 RMK A01
KVKY 181015Z AUTO 09016KT 10SM FEW029 BKN041 24/16 A3013 RMK A01
KVKY 180955Z AUTO 10015KT 10SM FEW027 BKN036 BKN042 24/17 A3012 RMK A01
KVKY 180935Z AUTO 10017KT 10SM BKN035 BKN042 24/17 A3012 RMK A01
KVKY 180915Z AUTO 08016KT 10SM SCT032 BKN039 BKN046 24/18 A3012 RMK A01
KVKY 180855Z AUTO 10014G20KT 10SM FEW031 SCT039 24/18 A3012 RMK A01
KVKY 180835Z AUTO 09017KT 10SM SCT032 SCT039 SCT045 24/17 A3011 RMK A01
KVKY 180815Z AUTO 10015KT 10SM FEW023 SCT040 BKN046 24/18 A3012 RMK A01